createdAt,value
2022-09-06T00:01:12.150Z,5.05
2022-09-06T00:03:41.774Z,5.22
2022-09-06T00:06:13.371Z,6.97
2022-09-06T00:08:42.977Z,6.00
2022-09-06T00:11:12.331Z,5.40
2022-09-06T00:13:41.518Z,5.78
2022-09-06T00:16:12.850Z,7.40
2022-09-06T00:18:42.093Z,6.70
2022-09-06T00:21:20.784Z,6.50
2022-09-06T00:23:49.684Z,6.60
2022-09-06T00:26:18.170Z,5.82
2022-09-06T00:28:47.468Z,6.88
2022-09-06T00:31:18.415Z,5.82
2022-09-06T00:33:48.109Z,6.47
2022-09-06T00:36:18.887Z,6.43
2022-09-06T00:38:47.415Z,8.52
2022-09-06T00:41:18.031Z,7.50
2022-09-06T00:43:46.972Z,6.40
2022-09-06T00:46:18.558Z,6.88
2022-09-06T00:48:50.257Z,7.10
2022-09-06T00:51:23.887Z,6.93
2022-09-06T00:53:53.079Z,7.32
2022-09-06T00:56:22.308Z,6.88
2022-09-06T00:58:51.042Z,7.47
2022-09-06T01:01:20.370Z,7.65
2022-09-06T01:03:49.182Z,7.50
2022-09-06T01:06:25.686Z,8.48
2022-09-06T01:09:07.037Z,8.25
2022-09-06T01:11:55.185Z,7.63
2022-09-06T01:14:37.808Z,7.03
2022-09-06T01:17:16.746Z,8.05
2022-09-06T01:20:10.990Z,7.95
2022-09-06T01:23:06.170Z,8.77
2022-09-06T01:25:40.205Z,9.02
2022-09-06T01:28:27.440Z,8.65
2022-09-06T01:31:06.195Z,8.70
2022-09-06T01:33:42.707Z,8.10
2022-09-06T01:36:16.132Z,8.32
2022-09-06T01:38:45.818Z,8.52
2022-09-06T01:41:14.180Z,8.98
2022-09-06T01:43:48.481Z,7.60
2022-09-06T01:46:26.412Z,9.90
2022-09-06T01:49:22.610Z,8.55
2022-09-06T01:52:05.819Z,8.57
2022-09-06T01:54:48.250Z,9.40
2022-09-06T01:57:30.367Z,9.90
2022-09-06T02:00:08.504Z,8.20
2022-09-06T02:02:52.744Z,8.05
2022-09-06T02:05:27.448Z,6.55
2022-09-06T02:08:00.590Z,7.03
2022-09-06T02:10:34.833Z,8.38
2022-09-06T02:13:07.566Z,8.60
2022-09-06T02:15:40.408Z,7.85
2022-09-06T02:18:12.959Z,7.95
2022-09-06T02:20:43.759Z,8.45
2022-09-06T02:23:13.955Z,8.45
2022-09-06T02:25:48.781Z,8.15
2022-09-06T02:28:18.121Z,7.88
2022-09-06T02:30:51.896Z,9.88
2022-09-06T02:33:24.001Z,8.13
2022-09-06T02:35:55.576Z,8.30
2022-09-06T02:38:26.633Z,8.85
2022-09-06T02:40:56.753Z,9.40
2022-09-06T02:43:26.144Z,7.88
2022-09-06T02:45:55.829Z,8.02
2022-09-06T02:48:24.583Z,7.80
2022-09-06T02:50:53.783Z,7.10
2022-09-06T02:53:22.251Z,6.93
2022-09-06T02:55:51.194Z,7.43
2022-09-06T02:58:19.527Z,8.38
2022-09-06T03:00:48.380Z,8.82
2022-09-06T03:03:19.091Z,9.40
2022-09-06T03:05:48.659Z,10.32
2022-09-06T03:08:18.158Z,9.60
2022-09-06T03:10:50.379Z,10.02
2022-09-06T03:13:19.284Z,8.00
2022-09-06T03:15:52.651Z,7.15
2022-09-06T03:18:23.065Z,6.28
2022-09-06T03:20:51.981Z,7.03
2022-09-06T03:23:22.947Z,6.22
2022-09-06T03:25:51.626Z,6.38
2022-09-06T03:28:21.842Z,8.40
2022-09-06T03:30:51.970Z,7.70
2022-09-06T03:33:23.091Z,8.23
2022-09-06T03:35:54.391Z,8.05
2022-09-06T03:38:23.976Z,8.50
2022-09-06T03:40:52.874Z,7.97
2022-09-06T03:43:23.650Z,8.18
2022-09-06T03:45:54.760Z,8.52
2022-09-06T03:48:26.799Z,8.07
2022-09-06T03:50:58.236Z,8.02
2022-09-06T03:53:28.183Z,8.32
2022-09-06T03:55:59.120Z,8.77
2022-09-06T03:58:32.057Z,8.40
2022-09-06T04:01:02.182Z,10.75
2022-09-06T04:03:32.413Z,9.50
2022-09-06T04:06:01.038Z,10.60
2022-09-06T04:08:30.325Z,10.30
2022-09-06T04:11:00.463Z,7.47
2022-09-06T04:13:30.293Z,11.02
2022-09-06T04:15:59.324Z,13.68
2022-09-06T04:18:28.274Z,11.52
2022-09-06T04:20:59.162Z,8.10
2022-09-06T04:23:29.028Z,7.00
2022-09-06T04:26:00.035Z,7.05
2022-09-06T04:28:29.165Z,7.15
2022-09-06T04:31:04.325Z,7.38
2022-09-06T04:33:34.822Z,8.73
2022-09-06T04:36:08.944Z,10.43
2022-09-06T04:38:38.931Z,11.70
2022-09-06T04:41:08.909Z,7.55
2022-09-06T04:43:37.706Z,7.47
2022-09-06T04:46:08.163Z,10.43
2022-09-06T04:48:37.014Z,13.55
2022-09-06T04:51:07.526Z,13.27
2022-09-06T04:53:36.119Z,10.25
2022-09-06T04:56:04.529Z,9.15
2022-09-06T04:58:33.473Z,9.30
2022-09-06T05:01:02.590Z,8.75
2022-09-06T05:03:30.947Z,9.02
2022-09-06T05:08:59.174Z,9.43
2022-09-06T05:11:27.608Z,13.40
2022-09-06T05:13:57.092Z,14.68
2022-09-06T05:16:25.516Z,13.20
2022-09-06T05:18:54.740Z,13.52
2022-09-06T05:21:24.697Z,9.50
2022-09-06T05:23:57.986Z,11.80
2022-09-06T05:26:27.282Z,12.85
2022-09-06T05:28:56.251Z,20.02
2022-09-06T05:31:29.523Z,15.48
2022-09-06T05:33:58.482Z,12.48
2022-09-06T05:36:30.187Z,15.35
2022-09-06T05:38:59.410Z,14.75
2022-09-06T05:41:28.419Z,17.05
2022-09-06T05:43:57.495Z,18.60
2022-09-06T05:46:26.919Z,18.25
2022-09-06T05:48:56.156Z,19.05
2022-09-06T05:51:25.083Z,16.88
2022-09-06T05:53:55.338Z,18.77
2022-09-06T05:56:25.227Z,17.98
2022-09-06T05:58:54.084Z,19.02
2022-09-06T06:01:25.073Z,16.52
2022-09-06T06:03:55.916Z,24.25
2022-09-06T06:06:25.682Z,23.48
2022-09-06T06:08:56.287Z,19.35
2022-09-06T06:11:26.407Z,26.50
2022-09-06T06:13:55.449Z,22.30
2022-09-06T06:16:25.363Z,28.20
2022-09-06T06:18:53.799Z,23.60
2022-09-06T06:21:24.045Z,25.15
2022-09-06T06:23:55.557Z,29.67
2022-09-06T06:26:24.435Z,26.48
2022-09-06T06:28:53.375Z,27.05
2022-09-06T06:31:22.600Z,24.27
2022-09-06T06:33:52.322Z,24.75
2022-09-06T06:36:22.747Z,22.13
2022-09-06T06:38:54.007Z,23.45
2022-09-06T06:41:25.665Z,24.17
2022-09-06T06:43:54.752Z,24.30
2022-09-06T06:46:25.889Z,24.20
2022-09-06T06:48:55.587Z,23.45
2022-09-06T06:51:26.736Z,23.23
2022-09-06T06:53:56.762Z,21.55
2022-09-06T06:56:28.283Z,21.35
2022-09-06T06:58:58.680Z,22.35
2022-09-06T07:01:29.125Z,19.25
2022-09-06T07:03:58.861Z,17.70
2022-09-06T07:09:19.662Z,15.63
2022-09-06T07:11:50.773Z,13.48
2022-09-06T07:14:19.869Z,12.48
2022-09-06T07:16:48.292Z,12.23
2022-09-06T07:22:06.399Z,14.27
2022-09-06T07:24:35.394Z,13.40
2022-09-06T07:29:53.613Z,14.23
2022-09-06T07:32:21.996Z,13.52
2022-09-06T07:34:50.882Z,13.70
2022-09-06T07:37:19.546Z,13.13
2022-09-06T07:39:47.982Z,10.80
2022-09-06T07:42:18.129Z,11.68
2022-09-06T07:44:46.694Z,15.15
2022-09-06T07:53:15.546Z,10.02
2022-09-06T07:55:44.869Z,11.48
2022-09-06T07:58:14.696Z,14.43
2022-09-06T08:00:43.309Z,10.52
2022-09-06T08:03:11.702Z,11.38
2022-09-06T08:11:18.473Z,13.30
2022-09-06T08:13:51.251Z,13.25
2022-09-06T08:16:20.155Z,14.52
2022-09-06T08:18:53.476Z,17.23
2022-09-06T08:21:23.882Z,13.75
2022-09-06T08:23:54.619Z,11.05
2022-09-06T08:26:24.663Z,9.82
2022-09-06T08:29:00.604Z,11.60
2022-09-06T08:31:30.252Z,11.40
2022-09-06T08:34:00.573Z,9.48
2022-09-06T08:36:31.164Z,9.48
2022-09-06T08:39:00.450Z,10.75
2022-09-06T08:41:34.269Z,9.93
2022-09-06T08:47:00.853Z,7.75
2022-09-06T08:49:33.162Z,7.55
2022-09-06T08:52:24.915Z,6.88
2022-09-06T08:55:01.671Z,8.32
2022-09-06T08:57:45.633Z,9.02
2022-09-06T09:00:15.573Z,7.25
2022-09-06T09:02:46.573Z,8.25
2022-09-06T09:05:23.266Z,7.25
2022-09-06T09:08:01.285Z,7.38
2022-09-06T09:10:33.083Z,5.18
2022-09-06T09:13:04.721Z,7.13
2022-09-06T09:15:40.458Z,4.95
2022-09-06T09:18:09.387Z,5.10
2022-09-06T09:20:39.168Z,6.97
2022-09-06T09:23:07.566Z,5.15
2022-09-06T09:25:39.538Z,12.98
2022-09-06T09:28:15.306Z,6.65
2022-09-06T09:30:50.982Z,4.80
2022-09-06T09:33:29.868Z,6.18
2022-09-06T09:36:00.669Z,4.43
2022-09-06T09:38:32.012Z,6.28
2022-09-06T09:41:02.865Z,4.78
2022-09-06T09:43:32.790Z,5.45
2022-09-06T09:46:17.811Z,6.20
2022-09-06T09:49:02.279Z,4.18
2022-09-06T09:51:32.074Z,5.60
2022-09-06T09:54:03.761Z,9.07
2022-09-06T09:56:38.240Z,6.78
2022-09-06T09:59:19.207Z,4.90
2022-09-06T10:01:49.383Z,5.95
2022-09-06T10:04:43.262Z,5.18
2022-09-06T10:07:14.862Z,3.33
2022-09-06T10:09:45.926Z,3.13
2022-09-06T10:12:19.258Z,5.50
2022-09-06T10:14:49.646Z,4.03
2022-09-06T10:17:31.067Z,4.90
2022-09-06T10:20:03.532Z,5.45
2022-09-06T10:22:33.785Z,5.28
2022-09-06T10:25:43.007Z,7.05
2022-09-06T10:28:28.585Z,4.60
2022-09-06T10:31:07.356Z,4.15
2022-09-06T10:33:52.291Z,4.38
2022-09-06T10:36:27.924Z,3.40
2022-09-06T10:39:03.705Z,4.68
2022-09-06T10:41:44.812Z,4.32
2022-09-06T10:44:35.559Z,6.03
2022-09-06T10:47:10.624Z,4.80
2022-09-06T10:49:45.414Z,5.32
2022-09-06T10:52:19.462Z,5.93
2022-09-06T10:54:47.895Z,6.35
2022-09-06T11:00:13.656Z,3.05
2022-09-06T11:02:48.884Z,8.40
2022-09-06T11:05:39.421Z,5.15
2022-09-06T11:11:08.106Z,4.22
2022-09-06T11:13:36.710Z,6.35
2022-09-06T11:16:10.160Z,4.18
2022-09-06T11:18:44.065Z,4.00
2022-09-06T11:21:50.687Z,4.95
2022-09-06T11:24:27.031Z,3.60
2022-09-06T11:27:03.258Z,5.35
2022-09-06T11:29:33.476Z,2.33
2022-09-06T11:32:19.057Z,5.10
2022-09-06T11:34:55.595Z,3.67
2022-09-06T11:37:29.180Z,2.80
2022-09-06T11:40:29.490Z,6.43
2022-09-06T11:43:13.318Z,6.88
2022-09-06T11:45:46.559Z,4.60
2022-09-06T11:48:36.475Z,5.70
2022-09-06T11:51:11.010Z,6.68
2022-09-06T11:54:05.380Z,2.22
2022-09-06T11:56:40.864Z,3.33
2022-09-06T11:59:19.566Z,4.53
2022-09-06T12:02:01.264Z,11.05
2022-09-06T12:05:16.710Z,6.07
2022-09-06T12:08:32.701Z,4.35
2022-09-06T12:11:21.718Z,5.82
2022-09-06T12:13:56.298Z,8.45
2022-09-06T12:16:26.150Z,3.53
2022-09-06T12:18:58.173Z,4.00
2022-09-06T12:21:52.888Z,5.47
2022-09-06T12:24:52.498Z,2.47
2022-09-06T12:27:24.515Z,6.97
2022-09-06T12:29:59.601Z,8.35
2022-09-06T12:32:36.090Z,4.40
2022-09-06T12:38:00.648Z,3.42
2022-09-06T12:40:31.785Z,3.90
2022-09-06T12:43:04.511Z,2.10
2022-09-06T12:45:34.357Z,4.55
2022-09-06T12:48:09.105Z,4.32
2022-09-06T12:50:39.176Z,4.82
2022-09-06T12:53:24.463Z,4.95
2022-09-06T12:56:05.576Z,7.80
2022-09-06T12:58:36.485Z,7.95
2022-09-06T13:01:11.353Z,6.22
2022-09-06T13:03:45.564Z,5.00
2022-09-06T13:06:26.018Z,5.05
2022-09-06T13:08:58.069Z,2.97
2022-09-06T13:11:31.554Z,5.78
2022-09-06T13:14:14.026Z,5.75
2022-09-06T13:16:46.820Z,5.70
2022-09-06T13:19:18.896Z,7.72
2022-09-06T13:21:47.987Z,3.75
2022-09-06T13:24:21.149Z,6.65
2022-09-06T13:26:50.727Z,5.22
2022-09-06T13:29:31.352Z,5.32
2022-09-06T13:32:03.677Z,5.75
2022-09-06T13:34:34.132Z,4.03
2022-09-06T13:37:06.344Z,8.32
2022-09-06T13:39:37.574Z,5.95
2022-09-06T13:42:08.368Z,7.25
2022-09-06T13:44:39.810Z,7.70
2022-09-06T13:47:08.786Z,6.95
2022-09-06T13:49:37.111Z,5.82
2022-09-06T13:52:06.457Z,4.30
2022-09-06T13:54:35.982Z,4.80
2022-09-06T13:57:04.740Z,3.65
2022-09-06T13:59:33.878Z,10.23
2022-09-06T14:02:07.211Z,9.48
2022-09-06T14:04:36.224Z,4.05
2022-09-06T14:07:05.564Z,5.55
2022-09-06T14:09:34.660Z,3.65
2022-09-06T14:12:03.232Z,5.75
2022-09-06T14:14:31.606Z,5.20
2022-09-06T14:17:00.401Z,5.30
2022-09-06T14:19:30.134Z,6.18
2022-09-06T14:21:58.511Z,5.13
2022-09-06T14:24:26.893Z,5.38
2022-09-06T14:26:55.270Z,5.53
2022-09-06T14:29:24.031Z,5.50
2022-09-06T14:31:52.447Z,4.93
2022-09-06T14:34:21.984Z,5.10
2022-09-06T14:36:51.988Z,3.97
2022-09-06T14:39:20.510Z,4.53
2022-09-06T14:41:49.275Z,3.65
2022-09-06T14:44:18.156Z,5.20
2022-09-06T14:46:47.731Z,7.80
2022-09-06T14:49:16.095Z,7.55
2022-09-06T14:51:45.930Z,5.40
2022-09-06T14:54:15.850Z,6.32
2022-09-06T14:56:44.697Z,9.82
2022-09-06T14:59:13.414Z,6.45
2022-09-06T15:01:42.084Z,5.20
2022-09-06T15:04:12.278Z,7.93
2022-09-06T15:06:44.919Z,4.78
2022-09-06T15:09:16.507Z,5.22
2022-09-06T15:11:48.026Z,5.00
2022-09-06T15:14:18.153Z,5.97
2022-09-06T15:16:49.784Z,5.78
2022-09-06T15:19:21.387Z,5.82
2022-09-06T15:21:50.256Z,12.30
2022-09-06T15:24:21.096Z,12.45
2022-09-06T15:26:49.554Z,8.15
2022-09-06T15:29:19.532Z,6.80
2022-09-06T15:31:50.894Z,11.43
2022-09-06T15:34:20.477Z,8.00
2022-09-06T15:36:49.430Z,7.50
2022-09-06T15:39:20.574Z,5.32
2022-09-06T15:41:51.547Z,9.40
2022-09-06T15:44:22.000Z,5.63
2022-09-06T15:46:52.001Z,5.18
2022-09-06T15:49:27.483Z,6.57
2022-09-06T15:51:57.641Z,6.22
2022-09-06T15:54:42.613Z,9.32
2022-09-06T15:57:11.497Z,7.18
2022-09-06T15:59:40.901Z,13.63
2022-09-06T16:02:09.696Z,6.45
2022-09-06T16:04:38.908Z,5.35
2022-09-06T16:07:07.511Z,5.95
2022-09-06T16:09:38.199Z,6.47
2022-09-06T16:12:07.285Z,8.43
2022-09-06T16:14:35.695Z,6.13
2022-09-06T16:17:04.921Z,5.90
2022-09-06T16:19:33.810Z,6.00
2022-09-06T16:22:02.477Z,7.35
2022-09-06T16:24:31.570Z,4.72
2022-09-06T16:27:01.276Z,6.47
2022-09-06T16:29:30.139Z,5.78
2022-09-06T16:32:00.527Z,6.85
2022-09-06T16:34:29.278Z,6.97
2022-09-06T16:36:58.071Z,7.07
2022-09-06T16:39:26.984Z,6.53
2022-09-06T16:41:55.804Z,6.85
2022-09-06T16:44:26.262Z,6.80
2022-09-06T16:46:57.180Z,5.85
2022-09-06T16:49:25.681Z,5.32
2022-09-06T16:51:54.051Z,7.88
2022-09-06T16:54:22.498Z,6.78
2022-09-06T16:56:50.873Z,7.05
2022-09-06T16:59:19.663Z,6.22
2022-09-06T17:01:49.600Z,6.72
2022-09-06T17:04:18.682Z,5.72
2022-09-06T17:06:47.404Z,7.40
2022-09-06T17:09:18.639Z,8.20
2022-09-06T17:11:50.460Z,5.43
2022-09-06T17:14:19.393Z,6.72
2022-09-06T17:17:06.843Z,9.38
2022-09-06T17:19:37.585Z,7.03
2022-09-06T17:22:06.459Z,10.35
2022-09-06T17:24:35.708Z,9.15
2022-09-06T17:27:04.210Z,6.93
2022-09-06T17:29:32.821Z,6.75
2022-09-06T17:32:04.497Z,5.40
2022-09-06T17:34:33.632Z,9.75
2022-09-06T17:37:02.324Z,9.20
2022-09-06T17:39:30.908Z,6.07
2022-09-06T17:42:00.496Z,7.38
2022-09-06T17:44:28.877Z,4.40
2022-09-06T17:47:14.437Z,9.85
2022-09-06T17:49:44.767Z,5.70
2022-09-06T17:52:13.904Z,6.50
2022-09-06T17:54:42.683Z,8.75
2022-09-06T17:57:11.047Z,5.70
2022-09-06T17:59:40.194Z,7.03
2022-09-06T18:02:08.950Z,4.53
2022-09-06T18:04:38.288Z,5.28
2022-09-06T18:07:08.028Z,5.97
2022-09-06T18:09:37.711Z,9.43
2022-09-06T18:12:06.792Z,12.68
2022-09-06T18:14:35.991Z,7.45
2022-09-06T18:17:04.412Z,7.90
2022-09-06T18:19:33.158Z,8.02
2022-09-06T18:22:01.605Z,6.15
2022-09-06T18:24:31.994Z,6.32
2022-09-06T18:27:03.198Z,9.05
2022-09-06T18:29:32.810Z,8.52
2022-09-06T18:32:02.023Z,5.47
2022-09-06T18:34:30.841Z,6.13
2022-09-06T18:36:59.763Z,7.68
2022-09-06T18:39:29.156Z,5.22
2022-09-06T18:42:02.067Z,11.23
2022-09-06T18:44:32.604Z,6.20
2022-09-06T18:47:02.650Z,7.07
2022-09-06T18:49:32.537Z,7.28
2022-09-06T18:52:01.389Z,9.68
2022-09-06T18:54:31.140Z,6.95
2022-09-06T18:57:00.943Z,5.63
2022-09-06T18:59:29.893Z,9.90
2022-09-06T19:01:58.489Z,9.10
2022-09-06T19:04:27.135Z,5.72
2022-09-06T19:06:55.504Z,8.15
2022-09-06T19:09:24.190Z,5.90
2022-09-06T19:11:53.232Z,5.03
2022-09-06T19:14:23.259Z,5.93
2022-09-06T19:16:53.844Z,5.45
2022-09-06T19:19:23.107Z,8.52
2022-09-06T19:21:52.411Z,6.90
2022-09-06T19:24:22.620Z,7.10
2022-09-06T19:26:52.770Z,11.02
2022-09-06T19:29:21.928Z,10.60
2022-09-06T19:31:52.908Z,7.00
2022-09-06T19:34:22.040Z,7.85
2022-09-06T19:36:55.553Z,5.50
2022-09-06T19:39:31.183Z,7.72
2022-09-06T19:42:02.518Z,8.38
2022-09-06T19:44:30.910Z,6.32
2022-09-06T19:47:01.326Z,8.10
2022-09-06T19:49:31.178Z,11.65
2022-09-06T19:51:59.536Z,7.72
2022-09-06T19:54:28.808Z,6.93
2022-09-06T19:56:57.160Z,4.80
2022-09-06T19:59:25.868Z,6.97
2022-09-06T20:01:54.750Z,8.80
2022-09-06T20:04:25.208Z,7.18
2022-09-06T20:06:53.620Z,9.05
2022-09-06T20:09:22.757Z,10.20
2022-09-06T20:11:51.722Z,7.63
2022-09-06T20:14:20.089Z,11.50
2022-09-06T20:16:49.060Z,8.88
2022-09-06T20:19:17.660Z,8.32
2022-09-06T20:21:48.307Z,8.50
2022-09-06T20:24:17.085Z,7.82
2022-09-06T20:26:45.428Z,9.70
2022-09-06T20:29:14.183Z,10.98
2022-09-06T20:31:43.459Z,11.98
2022-09-06T20:34:16.059Z,7.05
2022-09-06T20:36:45.232Z,7.30
2022-09-06T20:39:15.363Z,11.25
2022-09-06T20:41:43.764Z,9.43
2022-09-06T20:44:12.231Z,8.15
2022-09-06T20:46:41.490Z,6.40
2022-09-06T20:49:10.702Z,8.50
2022-09-06T20:51:43.123Z,8.85
2022-09-06T20:54:12.624Z,7.50
2022-09-06T20:56:43.132Z,6.82
2022-09-06T20:59:14.124Z,6.30
2022-09-06T21:01:44.526Z,6.38
2022-09-06T21:04:15.836Z,5.88
2022-09-06T21:06:46.135Z,8.63
2022-09-06T21:09:15.706Z,4.50
2022-09-06T21:11:46.880Z,7.93
2022-09-06T21:14:15.340Z,5.72
2022-09-06T21:16:43.864Z,6.82
2022-09-06T21:19:13.127Z,8.00
2022-09-06T21:21:41.932Z,7.82
2022-09-06T21:24:12.240Z,6.10
2022-09-06T21:26:43.322Z,9.13
2022-09-06T21:29:13.800Z,6.15
2022-09-06T21:31:42.992Z,10.07
2022-09-06T21:34:16.971Z,5.35
2022-09-06T21:36:46.851Z,10.23
2022-09-06T21:39:16.042Z,5.07
2022-09-06T21:41:45.318Z,15.52
2022-09-06T21:44:15.204Z,5.32
2022-09-06T21:46:44.750Z,4.75
2022-09-06T21:49:14.721Z,5.85
2022-09-06T21:51:44.434Z,7.25
2022-09-06T21:54:12.911Z,6.53
2022-09-06T21:56:42.297Z,6.95
2022-09-06T21:59:11.518Z,7.95
2022-09-06T22:01:44.884Z,7.13
2022-09-06T22:04:14.880Z,5.90
2022-09-06T22:06:43.259Z,7.95
2022-09-06T22:09:13.412Z,9.77
2022-09-06T22:11:44.299Z,6.28
2022-09-06T22:14:14.855Z,9.90
2022-09-06T22:16:45.356Z,7.90
2022-09-06T22:19:14.524Z,6.03
2022-09-06T22:21:42.973Z,5.10
2022-09-06T22:24:14.657Z,6.35
2022-09-06T22:26:43.752Z,9.40
2022-09-06T22:29:15.053Z,7.65
2022-09-06T22:31:46.125Z,7.38
2022-09-06T22:34:14.616Z,8.35
2022-09-06T22:36:43.916Z,6.60
2022-09-06T22:39:12.378Z,6.85
2022-09-06T22:41:41.530Z,6.78
2022-09-06T22:44:09.911Z,7.80
2022-09-06T22:46:39.096Z,5.43
2022-09-06T22:49:08.859Z,7.22
2022-09-06T22:51:38.177Z,7.78
2022-09-06T22:54:07.331Z,5.28
2022-09-06T22:56:35.754Z,4.10
2022-09-06T22:59:05.363Z,8.13
2022-09-06T23:01:39.174Z,7.60
2022-09-06T23:04:10.743Z,6.32
2022-09-06T23:06:39.242Z,6.78
2022-09-06T23:09:08.707Z,7.05
2022-09-06T23:11:37.496Z,7.22
2022-09-06T23:14:05.916Z,8.00
2022-09-06T23:16:35.118Z,7.18
2022-09-06T23:19:03.600Z,6.00
2022-09-06T23:21:35.268Z,6.30
2022-09-06T23:24:04.517Z,9.25
2022-09-06T23:26:34.195Z,7.70
2022-09-06T23:29:03.028Z,6.13
2022-09-06T23:31:32.878Z,5.32
2022-09-06T23:34:02.470Z,7.80
2022-09-06T23:36:32.812Z,7.97
2022-09-06T23:39:02.793Z,9.23
2022-09-06T23:41:32.294Z,6.28
2022-09-06T23:44:01.802Z,6.55
2022-09-06T23:46:31.463Z,4.57
2022-09-06T23:48:59.865Z,5.60
2022-09-06T23:51:29.107Z,5.90
2022-09-06T23:53:58.340Z,5.75
2022-09-06T23:56:28.911Z,7.18
2022-09-06T23:58:57.467Z,5.43
